sensor_id;sensor_type;location;lat;lon;timestamp;P1;durP1;ratioP1;P2;durP2;ratioP2
54177;SDS011;40085;53.004;6.770;2023-02-12T00:02:25;7.60;;;2.78;;
54177;SDS011;40085;53.004;6.770;2023-02-12T00:04:51;14.63;;;4.15;;
54177;SDS011;40085;53.004;6.770;2023-02-12T00:07:16;7.68;;;4.20;;
54177;SDS011;40085;53.004;6.770;2023-02-12T00:09:42;6.45;;;3.03;;
54177;SDS011;40085;53.004;6.770;2023-02-12T00:12:08;6.43;;;3.28;;
54177;SDS011;40085;53.004;6.770;2023-02-12T00:14:35;8.15;;;3.40;;
54177;SDS011;40085;53.004;6.770;2023-02-12T00:17:01;8.20;;;3.72;;
54177;SDS011;40085;53.004;6.770;2023-02-12T00:19:27;8.15;;;3.65;;
54177;SDS011;40085;53.004;6.770;2023-02-12T00:21:53;10.05;;;3.83;;
54177;SDS011;40085;53.004;6.770;2023-02-12T00:24:19;8.40;;;3.47;;
54177;SDS011;40085;53.004;6.770;2023-02-12T00:26:45;13.07;;;3.67;;
54177;SDS011;40085;53.004;6.770;2023-02-12T00:29:12;9.10;;;3.58;;
54177;SDS011;40085;53.004;6.770;2023-02-12T00:31:38;8.40;;;3.92;;
54177;SDS011;40085;53.004;6.770;2023-02-12T00:34:03;11.52;;;4.03;;
54177;SDS011;40085;53.004;6.770;2023-02-12T00:36:30;12.93;;;3.90;;
54177;SDS011;40085;53.004;6.770;2023-02-12T00:38:56;10.40;;;4.05;;
54177;SDS011;40085;53.004;6.770;2023-02-12T00:41:23;10.07;;;4.57;;
54177;SDS011;40085;53.004;6.770;2023-02-12T00:43:49;12.40;;;3.97;;
54177;SDS011;40085;53.004;6.770;2023-02-12T00:46:15;13.80;;;3.88;;
54177;SDS011;40085;53.004;6.770;2023-02-12T00:48:40;6.35;;;3.42;;
54177;SDS011;40085;53.004;6.770;2023-02-12T00:51:06;10.25;;;3.75;;
54177;SDS011;40085;53.004;6.770;2023-02-12T00:53:33;11.30;;;4.72;;
54177;SDS011;40085;53.004;6.770;2023-02-12T00:55:59;9.63;;;4.20;;
54177;SDS011;40085;53.004;6.770;2023-02-12T00:58:25;11.45;;;3.55;;
54177;SDS011;40085;53.004;6.770;2023-02-12T01:00:51;10.30;;;4.10;;
54177;SDS011;40085;53.004;6.770;2023-02-12T01:03:18;11.82;;;4.07;;
54177;SDS011;40085;53.004;6.770;2023-02-12T01:05:44;9.38;;;3.42;;
54177;SDS011;40085;53.004;6.770;2023-02-12T01:08:11;9.57;;;3.67;;
54177;SDS011;40085;53.004;6.770;2023-02-12T01:10:37;16.98;;;4.65;;
54177;SDS011;40085;53.004;6.770;2023-02-12T01:13:03;11.30;;;4.57;;
54177;SDS011;40085;53.004;6.770;2023-02-12T01:15:29;12.68;;;4.18;;
54177;SDS011;40085;53.004;6.770;2023-02-12T01:17:55;11.80;;;4.30;;
54177;SDS011;40085;53.004;6.770;2023-02-12T01:20:21;12.13;;;4.13;;
54177;SDS011;40085;53.004;6.770;2023-02-12T01:22:48;5.85;;;3.33;;
54177;SDS011;40085;53.004;6.770;2023-02-12T01:25:15;11.65;;;3.92;;
54177;SDS011;40085;53.004;6.770;2023-02-12T01:27:41;11.70;;;4.32;;
54177;SDS011;40085;53.004;6.770;2023-02-12T01:30:08;12.60;;;4.43;;
54177;SDS011;40085;53.004;6.770;2023-02-12T01:32:34;8.20;;;3.72;;
54177;SDS011;40085;53.004;6.770;2023-02-12T01:35:00;10.90;;;3.72;;
54177;SDS011;40085;53.004;6.770;2023-02-12T01:37:26;12.68;;;4.65;;
54177;SDS011;40085;53.004;6.770;2023-02-12T01:39:52;10.23;;;4.85;;
54177;SDS011;40085;53.004;6.770;2023-02-12T01:42:17;8.43;;;4.20;;
54177;SDS011;40085;53.004;6.770;2023-02-12T01:44:44;11.23;;;4.32;;
54177;SDS011;40085;53.004;6.770;2023-02-12T01:47:29;15.40;;;4.75;;
54177;SDS011;40085;53.004;6.770;2023-02-12T01:49:55;12.18;;;4.70;;
54177;SDS011;40085;53.004;6.770;2023-02-12T01:52:22;9.63;;;4.22;;
54177;SDS011;40085;53.004;6.770;2023-02-12T01:54:54;6.65;;;3.20;;
54177;SDS011;40085;53.004;6.770;2023-02-12T01:57:23;6.75;;;3.70;;
54177;SDS011;40085;53.004;6.770;2023-02-12T01:59:50;10.65;;;4.15;;
54177;SDS011;40085;53.004;6.770;2023-02-12T02:02:20;8.77;;;4.55;;
54177;SDS011;40085;53.004;6.770;2023-02-12T02:04:47;16.00;;;5.20;;
54177;SDS011;40085;53.004;6.770;2023-02-12T02:07:17;14.43;;;4.95;;
54177;SDS011;40085;53.004;6.770;2023-02-12T02:09:42;6.63;;;3.72;;
54177;SDS011;40085;53.004;6.770;2023-02-12T02:12:08;15.40;;;4.82;;
54177;SDS011;40085;53.004;6.770;2023-02-12T02:14:53;15.77;;;4.78;;
54177;SDS011;40085;53.004;6.770;2023-02-12T02:23:08;11.20;;;4.40;;
54177;SDS011;40085;53.004;6.770;2023-02-12T02:31:42;10.30;;;4.10;;
54177;SDS011;40085;53.004;6.770;2023-02-12T02:34:10;8.30;;;5.03;;
54177;SDS011;40085;53.004;6.770;2023-02-12T02:39:39;12.80;;;4.93;;
54177;SDS011;40085;53.004;6.770;2023-02-12T02:42:26;9.90;;;5.53;;
54177;SDS011;40085;53.004;6.770;2023-02-12T02:45:15;13.70;;;5.68;;
54177;SDS011;40085;53.004;6.770;2023-02-12T02:47:48;16.88;;;6.53;;
54177;SDS011;40085;53.004;6.770;2023-02-12T02:50:39;11.55;;;5.30;;
54177;SDS011;40085;53.004;6.770;2023-02-12T02:53:13;12.27;;;6.50;;
54177;SDS011;40085;53.004;6.770;2023-02-12T02:55:48;17.08;;;6.60;;
54177;SDS011;40085;53.004;6.770;2023-02-12T02:58:31;18.17;;;5.90;;
54177;SDS011;40085;53.004;6.770;2023-02-12T03:01:04;12.48;;;5.53;;
54177;SDS011;40085;53.004;6.770;2023-02-12T03:03:50;12.27;;;6.13;;
54177;SDS011;40085;53.004;6.770;2023-02-12T03:06:26;10.18;;;5.47;;
54177;SDS011;40085;53.004;6.770;2023-02-12T03:09:01;14.10;;;6.65;;
54177;SDS011;40085;53.004;6.770;2023-02-12T03:11:33;17.83;;;6.80;;
54177;SDS011;40085;53.004;6.770;2023-02-12T03:14:07;13.40;;;5.97;;
54177;SDS011;40085;53.004;6.770;2023-02-12T03:16:52;13.60;;;7.00;;
54177;SDS011;40085;53.004;6.770;2023-02-12T03:19:28;13.98;;;6.20;;
54177;SDS011;40085;53.004;6.770;2023-02-12T03:22:01;13.35;;;7.32;;
54177;SDS011;40085;53.004;6.770;2023-02-12T03:27:10;12.60;;;6.82;;
54177;SDS011;40085;53.004;6.770;2023-02-12T03:29:44;13.43;;;6.18;;
54177;SDS011;40085;53.004;6.770;2023-02-12T03:34:52;13.63;;;6.47;;
54177;SDS011;40085;53.004;6.770;2023-02-12T03:40:31;14.98;;;6.18;;
54177;SDS011;40085;53.004;6.770;2023-02-12T03:43:24;15.30;;;6.35;;
54177;SDS011;40085;53.004;6.770;2023-02-12T03:48:55;18.45;;;5.68;;
54177;SDS011;40085;53.004;6.770;2023-02-12T03:51:34;16.67;;;5.72;;
54177;SDS011;40085;53.004;6.770;2023-02-12T03:54:02;13.38;;;5.55;;
54177;SDS011;40085;53.004;6.770;2023-02-12T03:59:16;10.80;;;5.85;;
54177;SDS011;40085;53.004;6.770;2023-02-12T04:01:43;16.08;;;5.40;;
54177;SDS011;40085;53.004;6.770;2023-02-12T04:04:10;14.23;;;5.82;;
54177;SDS011;40085;53.004;6.770;2023-02-12T04:06:36;17.10;;;6.25;;
54177;SDS011;40085;53.004;6.770;2023-02-12T04:09:06;15.30;;;6.05;;
54177;SDS011;40085;53.004;6.770;2023-02-12T04:14:24;13.95;;;5.50;;
54177;SDS011;40085;53.004;6.770;2023-02-12T04:17:04;11.80;;;4.85;;
54177;SDS011;40085;53.004;6.770;2023-02-12T04:19:39;13.68;;;5.53;;
54177;SDS011;40085;53.004;6.770;2023-02-12T04:27:55;11.85;;;4.95;;
54177;SDS011;40085;53.004;6.770;2023-02-12T04:30:35;13.60;;;5.75;;
54177;SDS011;40085;53.004;6.770;2023-02-12T04:33:08;18.80;;;5.93;;
54177;SDS011;40085;53.004;6.770;2023-02-12T04:35:47;12.35;;;4.72;;
54177;SDS011;40085;53.004;6.770;2023-02-12T04:38:18;11.70;;;5.22;;
54177;SDS011;40085;53.004;6.770;2023-02-12T04:40:49;17.70;;;5.47;;
54177;SDS011;40085;53.004;6.770;2023-02-12T04:43:25;12.70;;;5.20;;
54177;SDS011;40085;53.004;6.770;2023-02-12T04:45:55;12.07;;;5.43;;
54177;SDS011;40085;53.004;6.770;2023-02-12T04:48:21;13.35;;;5.78;;
54177;SDS011;40085;53.004;6.770;2023-02-12T04:50:46;15.27;;;4.88;;
54177;SDS011;40085;53.004;6.770;2023-02-12T04:53:12;10.68;;;4.30;;
54177;SDS011;40085;53.004;6.770;2023-02-12T04:55:38;13.75;;;5.10;;
54177;SDS011;40085;53.004;6.770;2023-02-12T04:58:03;8.18;;;4.38;;
54177;SDS011;40085;53.004;6.770;2023-02-12T05:00:30;14.65;;;5.50;;
54177;SDS011;40085;53.004;6.770;2023-02-12T05:02:55;9.95;;;4.78;;
54177;SDS011;40085;53.004;6.770;2023-02-12T05:05:21;13.75;;;4.93;;
54177;SDS011;40085;53.004;6.770;2023-02-12T05:07:47;12.10;;;4.97;;
54177;SDS011;40085;53.004;6.770;2023-02-12T05:10:12;8.70;;;4.45;;
54177;SDS011;40085;53.004;6.770;2023-02-12T05:12:38;9.52;;;5.20;;
54177;SDS011;40085;53.004;6.770;2023-02-12T05:15:03;14.75;;;5.57;;
54177;SDS011;40085;53.004;6.770;2023-02-12T05:17:29;9.93;;;4.65;;
54177;SDS011;40085;53.004;6.770;2023-02-12T05:19:55;9.82;;;4.97;;
54177;SDS011;40085;53.004;6.770;2023-02-12T05:22:20;10.82;;;4.93;;
54177;SDS011;40085;53.004;6.770;2023-02-12T05:24:46;13.95;;;5.72;;
54177;SDS011;40085;53.004;6.770;2023-02-12T05:27:11;15.10;;;6.03;;
54177;SDS011;40085;53.004;6.770;2023-02-12T05:29:37;13.35;;;5.03;;
54177;SDS011;40085;53.004;6.770;2023-02-12T05:32:03;11.30;;;5.32;;
54177;SDS011;40085;53.004;6.770;2023-02-12T05:34:30;11.70;;;5.30;;
54177;SDS011;40085;53.004;6.770;2023-02-12T05:36:56;9.98;;;5.60;;
54177;SDS011;40085;53.004;6.770;2023-02-12T05:39:22;11.07;;;5.60;;
54177;SDS011;40085;53.004;6.770;2023-02-12T05:41:47;11.35;;;5.78;;
54177;SDS011;40085;53.004;6.770;2023-02-12T05:44:13;15.35;;;5.68;;
54177;SDS011;40085;53.004;6.770;2023-02-12T05:46:42;12.60;;;4.63;;
54177;SDS011;40085;53.004;6.770;2023-02-12T05:49:08;17.70;;;6.63;;
54177;SDS011;40085;53.004;6.770;2023-02-12T05:51:35;12.68;;;6.05;;
54177;SDS011;40085;53.004;6.770;2023-02-12T05:54:02;12.10;;;5.65;;
54177;SDS011;40085;53.004;6.770;2023-02-12T05:56:33;14.82;;;6.20;;
54177;SDS011;40085;53.004;6.770;2023-02-12T05:59:07;13.50;;;5.47;;
54177;SDS011;40085;53.004;6.770;2023-02-12T06:01:38;10.70;;;5.28;;
54177;SDS011;40085;53.004;6.770;2023-02-12T06:04:07;9.18;;;4.60;;
54177;SDS011;40085;53.004;6.770;2023-02-12T06:09:06;9.90;;;5.00;;
54177;SDS011;40085;53.004;6.770;2023-02-12T06:11:32;8.48;;;4.30;;
54177;SDS011;40085;53.004;6.770;2023-02-12T06:14:00;14.60;;;5.20;;
54177;SDS011;40085;53.004;6.770;2023-02-12T06:16:27;9.82;;;4.97;;
54177;SDS011;40085;53.004;6.770;2023-02-12T06:18:53;10.18;;;5.03;;
54177;SDS011;40085;53.004;6.770;2023-02-12T06:21:21;9.90;;;4.72;;
54177;SDS011;40085;53.004;6.770;2023-02-12T06:23:47;8.55;;;4.43;;
54177;SDS011;40085;53.004;6.770;2023-02-12T06:26:14;9.27;;;4.20;;
54177;SDS011;40085;53.004;6.770;2023-02-12T06:28:40;11.35;;;5.47;;
54177;SDS011;40085;53.004;6.770;2023-02-12T06:31:15;13.13;;;5.63;;
54177;SDS011;40085;53.004;6.770;2023-02-12T06:33:43;10.20;;;4.35;;
54177;SDS011;40085;53.004;6.770;2023-02-12T06:36:09;11.20;;;4.85;;
54177;SDS011;40085;53.004;6.770;2023-02-12T06:38:35;9.70;;;5.18;;
54177;SDS011;40085;53.004;6.770;2023-02-12T06:41:01;10.30;;;4.32;;
54177;SDS011;40085;53.004;6.770;2023-02-12T06:43:27;12.55;;;4.63;;
54177;SDS011;40085;53.004;6.770;2023-02-12T06:45:53;8.38;;;4.20;;
54177;SDS011;40085;53.004;6.770;2023-02-12T06:48:18;7.80;;;3.63;;
54177;SDS011;40085;53.004;6.770;2023-02-12T06:50:44;12.70;;;4.78;;
54177;SDS011;40085;53.004;6.770;2023-02-12T06:53:09;18.88;;;4.50;;
54177;SDS011;40085;53.004;6.770;2023-02-12T06:55:35;14.48;;;4.88;;
54177;SDS011;40085;53.004;6.770;2023-02-12T06:58:01;9.95;;;4.45;;
54177;SDS011;40085;53.004;6.770;2023-02-12T07:00:26;14.15;;;5.65;;
54177;SDS011;40085;53.004;6.770;2023-02-12T07:02:53;12.90;;;5.18;;
54177;SDS011;40085;53.004;6.770;2023-02-12T07:05:21;10.50;;;4.55;;
54177;SDS011;40085;53.004;6.770;2023-02-12T07:07:48;12.90;;;4.88;;
54177;SDS011;40085;53.004;6.770;2023-02-12T07:10:13;13.32;;;5.00;;
54177;SDS011;40085;53.004;6.770;2023-02-12T07:12:39;13.75;;;5.25;;
54177;SDS011;40085;53.004;6.770;2023-02-12T07:15:05;13.32;;;5.88;;
54177;SDS011;40085;53.004;6.770;2023-02-12T07:17:31;13.30;;;5.43;;
54177;SDS011;40085;53.004;6.770;2023-02-12T07:19:56;14.02;;;5.88;;
54177;SDS011;40085;53.004;6.770;2023-02-12T07:22:22;13.48;;;5.03;;
54177;SDS011;40085;53.004;6.770;2023-02-12T07:24:47;14.55;;;5.57;;
54177;SDS011;40085;53.004;6.770;2023-02-12T07:27:13;12.77;;;6.07;;
54177;SDS011;40085;53.004;6.770;2023-02-12T07:29:39;8.73;;;4.50;;
54177;SDS011;40085;53.004;6.770;2023-02-12T07:32:04;11.55;;;5.72;;
54177;SDS011;40085;53.004;6.770;2023-02-12T07:34:30;11.73;;;4.95;;
54177;SDS011;40085;53.004;6.770;2023-02-12T07:36:56;13.27;;;5.55;;
54177;SDS011;40085;53.004;6.770;2023-02-12T07:39:22;15.35;;;5.53;;
54177;SDS011;40085;53.004;6.770;2023-02-12T07:41:47;12.15;;;5.75;;
54177;SDS011;40085;53.004;6.770;2023-02-12T07:44:13;14.15;;;6.05;;
54177;SDS011;40085;53.004;6.770;2023-02-12T07:46:40;13.18;;;6.05;;
54177;SDS011;40085;53.004;6.770;2023-02-12T07:49:14;11.07;;;5.10;;
54177;SDS011;40085;53.004;6.770;2023-02-12T07:51:42;20.15;;;6.07;;
54177;SDS011;40085;53.004;6.770;2023-02-12T07:54:08;12.02;;;5.80;;
54177;SDS011;40085;53.004;6.770;2023-02-12T07:56:35;14.57;;;5.95;;
54177;SDS011;40085;53.004;6.770;2023-02-12T07:59:04;16.40;;;6.20;;
54177;SDS011;40085;53.004;6.770;2023-02-12T08:01:35;17.00;;;6.25;;
54177;SDS011;40085;53.004;6.770;2023-02-12T08:04:06;13.57;;;5.75;;
54177;SDS011;40085;53.004;6.770;2023-02-12T08:09:02;16.38;;;6.40;;
54177;SDS011;40085;53.004;6.770;2023-02-12T08:11:29;14.80;;;5.90;;
54177;SDS011;40085;53.004;6.770;2023-02-12T08:13:56;13.50;;;5.57;;
54177;SDS011;40085;53.004;6.770;2023-02-12T08:16:22;18.33;;;6.65;;
54177;SDS011;40085;53.004;6.770;2023-02-12T08:18:50;14.55;;;6.70;;
54177;SDS011;40085;53.004;6.770;2023-02-12T08:21:17;15.32;;;6.38;;
54177;SDS011;40085;53.004;6.770;2023-02-12T08:23:47;14.18;;;5.97;;
54177;SDS011;40085;53.004;6.770;2023-02-12T08:26:21;13.45;;;5.72;;
54177;SDS011;40085;53.004;6.770;2023-02-12T08:28:54;12.43;;;5.45;;
54177;SDS011;40085;53.004;6.770;2023-02-12T08:31:26;13.88;;;6.15;;
54177;SDS011;40085;53.004;6.770;2023-02-12T08:33:53;16.55;;;8.73;;
54177;SDS011;40085;53.004;6.770;2023-02-12T08:36:20;16.48;;;6.10;;
54177;SDS011;40085;53.004;6.770;2023-02-12T08:38:48;13.43;;;5.63;;
54177;SDS011;40085;53.004;6.770;2023-02-12T08:41:24;17.75;;;5.75;;
54177;SDS011;40085;53.004;6.770;2023-02-12T08:43:52;11.00;;;5.93;;
54177;SDS011;40085;53.004;6.770;2023-02-12T08:46:20;15.73;;;6.32;;
54177;SDS011;40085;53.004;6.770;2023-02-12T08:49:07;16.50;;;5.80;;
54177;SDS011;40085;53.004;6.770;2023-02-12T08:51:36;17.15;;;6.30;;
54177;SDS011;40085;53.004;6.770;2023-02-12T08:54:05;13.25;;;6.10;;
54177;SDS011;40085;53.004;6.770;2023-02-12T08:56:33;18.50;;;6.85;;
54177;SDS011;40085;53.004;6.770;2023-02-12T08:59:00;17.63;;;7.20;;
54177;SDS011;40085;53.004;6.770;2023-02-12T09:01:27;13.20;;;6.63;;
54177;SDS011;40085;53.004;6.770;2023-02-12T09:03:54;19.35;;;8.07;;
54177;SDS011;40085;53.004;6.770;2023-02-12T09:06:21;14.93;;;6.68;;
54177;SDS011;40085;53.004;6.770;2023-02-12T09:08:48;13.48;;;6.18;;
54177;SDS011;40085;53.004;6.770;2023-02-12T09:11:17;13.80;;;6.72;;
54177;SDS011;40085;53.004;6.770;2023-02-12T09:13:50;19.25;;;7.50;;
54177;SDS011;40085;53.004;6.770;2023-02-12T09:16:17;16.48;;;6.88;;
54177;SDS011;40085;53.004;6.770;2023-02-12T09:18:43;12.30;;;6.40;;
54177;SDS011;40085;53.004;6.770;2023-02-12T09:21:13;18.83;;;6.97;;
54177;SDS011;40085;53.004;6.770;2023-02-12T09:23:41;20.98;;;6.88;;
54177;SDS011;40085;53.004;6.770;2023-02-12T09:26:08;16.65;;;6.70;;
54177;SDS011;40085;53.004;6.770;2023-02-12T09:28:36;17.50;;;6.88;;
54177;SDS011;40085;53.004;6.770;2023-02-12T09:31:12;13.82;;;6.63;;
54177;SDS011;40085;53.004;6.770;2023-02-12T09:33:40;15.90;;;7.32;;
54177;SDS011;40085;53.004;6.770;2023-02-12T09:36:10;16.33;;;7.78;;
54177;SDS011;40085;53.004;6.770;2023-02-12T09:38:40;20.17;;;7.30;;
54177;SDS011;40085;53.004;6.770;2023-02-12T09:43:33;16.17;;;6.35;;
54177;SDS011;40085;53.004;6.770;2023-02-12T09:48:43;14.88;;;6.93;;
54177;SDS011;40085;53.004;6.770;2023-02-12T09:51:18;19.73;;;7.93;;
54177;SDS011;40085;53.004;6.770;2023-02-12T09:53:45;12.77;;;6.43;;
54177;SDS011;40085;53.004;6.770;2023-02-12T09:56:14;15.15;;;6.95;;
54177;SDS011;40085;53.004;6.770;2023-02-12T09:58:46;15.02;;;7.53;;
54177;SDS011;40085;53.004;6.770;2023-02-12T10:01:20;16.10;;;6.53;;
54177;SDS011;40085;53.004;6.770;2023-02-12T10:03:47;13.15;;;6.85;;
54177;SDS011;40085;53.004;6.770;2023-02-12T10:06:16;11.45;;;6.15;;
54177;SDS011;40085;53.004;6.770;2023-02-12T10:08:58;15.07;;;7.10;;
54177;SDS011;40085;53.004;6.770;2023-02-12T10:11:47;10.68;;;5.68;;
54177;SDS011;40085;53.004;6.770;2023-02-12T10:17:18;11.93;;;5.97;;
54177;SDS011;40085;53.004;6.770;2023-02-12T10:23:07;14.90;;;6.25;;
54177;SDS011;40085;53.004;6.770;2023-02-12T10:25:48;15.35;;;5.75;;
54177;SDS011;40085;53.004;6.770;2023-02-12T10:28:18;11.73;;;5.75;;
54177;SDS011;40085;53.004;6.770;2023-02-12T10:30:52;15.80;;;6.70;;
54177;SDS011;40085;53.004;6.770;2023-02-12T10:36:18;11.98;;;5.55;;
54177;SDS011;40085;53.004;6.770;2023-02-12T10:39:10;9.18;;;4.88;;
54177;SDS011;40085;53.004;6.770;2023-02-12T10:41:42;13.70;;;5.28;;
54177;SDS011;40085;53.004;6.770;2023-02-12T10:44:12;12.45;;;5.20;;
54177;SDS011;40085;53.004;6.770;2023-02-12T10:46:38;16.88;;;5.07;;
54177;SDS011;40085;53.004;6.770;2023-02-12T10:49:04;15.52;;;5.68;;
54177;SDS011;40085;53.004;6.770;2023-02-12T10:54:42;10.13;;;5.03;;
54177;SDS011;40085;53.004;6.770;2023-02-12T10:57:10;8.82;;;4.88;;
54177;SDS011;40085;53.004;6.770;2023-02-12T10:59:38;9.68;;;5.28;;
54177;SDS011;40085;53.004;6.770;2023-02-12T11:05:19;8.65;;;4.45;;
54177;SDS011;40085;53.004;6.770;2023-02-12T11:07:48;11.73;;;5.63;;
54177;SDS011;40085;53.004;6.770;2023-02-12T11:10:19;12.57;;;5.32;;
54177;SDS011;40085;53.004;6.770;2023-02-12T11:15:14;7.47;;;4.03;;
54177;SDS011;40085;53.004;6.770;2023-02-12T11:17:56;8.70;;;5.23;;
54177;SDS011;40085;53.004;6.770;2023-02-12T11:23:00;10.90;;;4.68;;
54177;SDS011;40085;53.004;6.770;2023-02-12T11:25:28;9.55;;;4.72;;
54177;SDS011;40085;53.004;6.770;2023-02-12T11:30:47;11.35;;;4.95;;
54177;SDS011;40085;53.004;6.770;2023-02-12T11:33:28;10.13;;;4.20;;
54177;SDS011;40085;53.004;6.770;2023-02-12T11:38:31;10.93;;;4.78;;
54177;SDS011;40085;53.004;6.770;2023-02-12T11:40:59;11.75;;;5.47;;
54177;SDS011;40085;53.004;6.770;2023-02-12T11:43:29;8.80;;;4.40;;
54177;SDS011;40085;53.004;6.770;2023-02-12T11:45:55;12.25;;;3.90;;
54177;SDS011;40085;53.004;6.770;2023-02-12T11:48:32;7.63;;;2.63;;
54177;SDS011;40085;53.004;6.770;2023-02-12T11:51:03;3.20;;;1.77;;
54177;SDS011;40085;53.004;6.770;2023-02-12T11:53:37;3.45;;;2.13;;
54177;SDS011;40085;53.004;6.770;2023-02-12T11:56:08;3.53;;;1.50;;
54177;SDS011;40085;53.004;6.770;2023-02-12T11:58:36;3.55;;;1.75;;
54177;SDS011;40085;53.004;6.770;2023-02-12T12:08:52;2.45;;;1.10;;
54177;SDS011;40085;53.004;6.770;2023-02-12T12:17:44;1.65;;;0.55;;
54177;SDS011;40085;53.004;6.770;2023-02-12T12:20:44;0.60;;;0.47;;
54177;SDS011;40085;53.004;6.770;2023-02-12T12:23:15;2.92;;;0.50;;
54177;SDS011;40085;53.004;6.770;2023-02-12T12:25:48;1.30;;;0.77;;
54177;SDS011;40085;53.004;6.770;2023-02-12T12:31:19;3.75;;;1.13;;
54177;SDS011;40085;53.004;6.770;2023-02-12T12:47:29;0.73;;;0.70;;
54177;SDS011;40085;53.004;6.770;2023-02-12T12:55:17;0.47;;;0.47;;
54177;SDS011;40085;53.004;6.770;2023-02-12T13:03:27;1.58;;;0.80;;
54177;SDS011;40085;53.004;6.770;2023-02-12T13:08:51;5.72;;;1.63;;
54177;SDS011;40085;53.004;6.770;2023-02-12T13:11:27;5.82;;;2.58;;
54177;SDS011;40085;53.004;6.770;2023-02-12T13:14:06;4.93;;;1.98;;
54177;SDS011;40085;53.004;6.770;2023-02-12T13:16:34;4.90;;;2.10;;
54177;SDS011;40085;53.004;6.770;2023-02-12T13:24:34;4.70;;;2.15;;
54177;SDS011;40085;53.004;6.770;2023-02-12T13:27:15;4.88;;;2.58;;
54177;SDS011;40085;53.004;6.770;2023-02-12T13:29:45;5.15;;;2.58;;
54177;SDS011;40085;53.004;6.770;2023-02-12T13:34:51;7.15;;;3.33;;
54177;SDS011;40085;53.004;6.770;2023-02-12T13:37:20;6.60;;;2.95;;
54177;SDS011;40085;53.004;6.770;2023-02-12T13:39:55;4.57;;;2.47;;
54177;SDS011;40085;53.004;6.770;2023-02-12T13:45:17;3.75;;;1.67;;
54177;SDS011;40085;53.004;6.770;2023-02-12T13:48:12;3.15;;;1.63;;
54177;SDS011;40085;53.004;6.770;2023-02-12T13:56:59;7.15;;;1.90;;
54177;SDS011;40085;53.004;6.770;2023-02-12T14:01:56;3.00;;;1.48;;
54177;SDS011;40085;53.004;6.770;2023-02-12T14:04:32;3.00;;;1.33;;
54177;SDS011;40085;53.004;6.770;2023-02-12T14:07:08;7.72;;;2.20;;
54177;SDS011;40085;53.004;6.770;2023-02-12T14:09:37;4.78;;;1.90;;
54177;SDS011;40085;53.004;6.770;2023-02-12T14:12:26;3.47;;;1.80;;
54177;SDS011;40085;53.004;6.770;2023-02-12T14:15:08;2.83;;;1.75;;
54177;SDS011;40085;53.004;6.770;2023-02-12T14:18:34;3.75;;;1.27;;
54177;SDS011;40085;53.004;6.770;2023-02-12T14:23:37;3.38;;;1.95;;
54177;SDS011;40085;53.004;6.770;2023-02-12T14:26:14;4.15;;;1.08;;
54177;SDS011;40085;53.004;6.770;2023-02-12T14:38:59;1.60;;;0.90;;
54177;SDS011;40085;53.004;6.770;2023-02-12T14:41:34;1.38;;;0.90;;
54177;SDS011;40085;53.004;6.770;2023-02-12T14:49:18;0.70;;;0.50;;
54177;SDS011;40085;53.004;6.770;2023-02-12T14:54:40;1.57;;;0.70;;
54177;SDS011;40085;53.004;6.770;2023-02-12T14:57:11;2.22;;;0.85;;
54177;SDS011;40085;53.004;6.770;2023-02-12T14:59:43;1.15;;;0.60;;
54177;SDS011;40085;53.004;6.770;2023-02-12T15:02:13;1.23;;;0.70;;
54177;SDS011;40085;53.004;6.770;2023-02-12T15:04:52;1.30;;;0.85;;
54177;SDS011;40085;53.004;6.770;2023-02-12T15:07:29;2.55;;;0.82;;
54177;SDS011;40085;53.004;6.770;2023-02-12T15:10:12;1.25;;;0.80;;
54177;SDS011;40085;53.004;6.770;2023-02-12T15:13:07;1.63;;;0.80;;
54177;SDS011;40085;53.004;6.770;2023-02-12T15:15:32;1.85;;;1.23;;
54177;SDS011;40085;53.004;6.770;2023-02-12T15:18:17;1.60;;;1.23;;
54177;SDS011;40085;53.004;6.770;2023-02-12T15:21:21;1.80;;;1.00;;
54177;SDS011;40085;53.004;6.770;2023-02-12T15:26:38;2.42;;;1.23;;
54177;SDS011;40085;53.004;6.770;2023-02-12T15:29:30;3.03;;;1.40;;
54177;SDS011;40085;53.004;6.770;2023-02-12T15:32:03;1.38;;;0.90;;
54177;SDS011;40085;53.004;6.770;2023-02-12T15:34:32;2.78;;;2.05;;
54177;SDS011;40085;53.004;6.770;2023-02-12T15:37:02;2.30;;;1.20;;
54177;SDS011;40085;53.004;6.770;2023-02-12T15:39:36;2.03;;;1.02;;
54177;SDS011;40085;53.004;6.770;2023-02-12T15:42:28;1.23;;;0.90;;
54177;SDS011;40085;53.004;6.770;2023-02-12T15:45:06;3.17;;;1.20;;
54177;SDS011;40085;53.004;6.770;2023-02-12T15:47:38;1.38;;;0.70;;
54177;SDS011;40085;53.004;6.770;2023-02-12T15:50:06;3.33;;;1.02;;
54177;SDS011;40085;53.004;6.770;2023-02-12T15:52:37;2.10;;;0.90;;
54177;SDS011;40085;53.004;6.770;2023-02-12T15:55:05;2.15;;;1.30;;
54177;SDS011;40085;53.004;6.770;2023-02-12T15:57:38;3.03;;;1.13;;
54177;SDS011;40085;53.004;6.770;2023-02-12T16:00:08;2.45;;;1.25;;
54177;SDS011;40085;53.004;6.770;2023-02-12T16:02:47;3.72;;;1.40;;
54177;SDS011;40085;53.004;6.770;2023-02-12T16:07:41;3.28;;;1.20;;
54177;SDS011;40085;53.004;6.770;2023-02-12T16:10:09;2.08;;;1.05;;
54177;SDS011;40085;53.004;6.770;2023-02-12T16:12:40;2.90;;;1.58;;
54177;SDS011;40085;53.004;6.770;2023-02-12T16:15:06;5.18;;;1.52;;
54177;SDS011;40085;53.004;6.770;2023-02-12T16:17:47;3.72;;;1.58;;
54177;SDS011;40085;53.004;6.770;2023-02-12T16:22:44;2.60;;;1.73;;
54177;SDS011;40085;53.004;6.770;2023-02-12T16:25:13;4.90;;;1.92;;
54177;SDS011;40085;53.004;6.770;2023-02-12T16:27:48;3.97;;;1.63;;
54177;SDS011;40085;53.004;6.770;2023-02-12T16:32:48;2.90;;;1.50;;
54177;SDS011;40085;53.004;6.770;2023-02-12T16:37:42;2.58;;;1.77;;
54177;SDS011;40085;53.004;6.770;2023-02-12T16:50:22;3.50;;;1.40;;
54177;SDS011;40085;53.004;6.770;2023-02-12T16:52:49;3.30;;;1.98;;
54177;SDS011;40085;53.004;6.770;2023-02-12T16:55:23;3.10;;;1.52;;
54177;SDS011;40085;53.004;6.770;2023-02-12T16:57:49;5.03;;;1.95;;
54177;SDS011;40085;53.004;6.770;2023-02-12T17:00:16;5.30;;;1.80;;
54177;SDS011;40085;53.004;6.770;2023-02-12T17:02:42;3.60;;;1.73;;
54177;SDS011;40085;53.004;6.770;2023-02-12T17:05:08;4.40;;;1.27;;
54177;SDS011;40085;53.004;6.770;2023-02-12T17:07:35;2.20;;;1.33;;
54177;SDS011;40085;53.004;6.770;2023-02-12T17:10:01;2.58;;;1.75;;
54177;SDS011;40085;53.004;6.770;2023-02-12T17:12:27;3.10;;;1.52;;
54177;SDS011;40085;53.004;6.770;2023-02-12T17:14:53;5.43;;;1.50;;
54177;SDS011;40085;53.004;6.770;2023-02-12T17:17:20;3.58;;;1.40;;
54177;SDS011;40085;53.004;6.770;2023-02-12T17:19:46;2.58;;;1.48;;
54177;SDS011;40085;53.004;6.770;2023-02-12T17:22:19;2.67;;;1.38;;
54177;SDS011;40085;53.004;6.770;2023-02-12T17:24:46;2.80;;;1.20;;
54177;SDS011;40085;53.004;6.770;2023-02-12T17:27:15;5.43;;;1.63;;
54177;SDS011;40085;53.004;6.770;2023-02-12T17:29:42;4.45;;;2.00;;
54177;SDS011;40085;53.004;6.770;2023-02-12T17:32:08;4.05;;;1.77;;
54177;SDS011;40085;53.004;6.770;2023-02-12T17:34:34;3.03;;;1.88;;
54177;SDS011;40085;53.004;6.770;2023-02-12T17:37:03;4.93;;;1.52;;
54177;SDS011;40085;53.004;6.770;2023-02-12T17:39:29;6.20;;;1.90;;
54177;SDS011;40085;53.004;6.770;2023-02-12T17:41:55;3.95;;;2.45;;
54177;SDS011;40085;53.004;6.770;2023-02-12T17:44:24;3.95;;;2.30;;
54177;SDS011;40085;53.004;6.770;2023-02-12T17:46:54;3.42;;;2.15;;
54177;SDS011;40085;53.004;6.770;2023-02-12T17:49:20;6.18;;;2.25;;
54177;SDS011;40085;53.004;6.770;2023-02-12T17:51:46;3.38;;;1.90;;
54177;SDS011;40085;53.004;6.770;2023-02-12T17:54:12;4.82;;;2.55;;
54177;SDS011;40085;53.004;6.770;2023-02-12T17:56:41;4.43;;;2.30;;
54177;SDS011;40085;53.004;6.770;2023-02-12T17:59:08;4.35;;;2.50;;
54177;SDS011;40085;53.004;6.770;2023-02-12T18:01:34;5.00;;;2.33;;